Terminal Aerodrome Forecast
Issued by NWS

Home | Current Version | Previous Version | Text Only | Print | Product List | Glossary On
Versions: 1 2 3 4 5 6 7 8 9 10 11 12 13 14 15 16 17 18 19 20 21 22 23 24 25 26 27 28 29 30
960
FTUS43 KDLH 301739
TAFHIB
TAF
KHIB 301739Z 3018/3118 29010KT P6SM VCSH SCT035
     FM310000 16006KT P6SM VCSH OVC070
     FM310900 09011G20KT P6SM -RA VCTS SCT015CB BKN035
     FM311400 12012G18KT 6SM -RA BR VCTS OVC025CB=

USA.gov is the U.S. government's official web portal to all federal, state and local government web resources and services.